Aérodrome :
LOGIN :

S'inscrire | Disclaimer

   EN    FR    IT 

 










Légende :    VFR   VFR Marginal   IFR   IFR Intensif   IFR Très Intensif
Visi : 
Plafond : 
>= 8 km
>= 3000ft
5 à 8 km
1000 à 3000 ft
1500m à 5 km
500 à 1000 ft
800 à 1500m
200 à 500 ft
< 800m
< 200 ft
Symboles :   Orages  Brouillard  Fortes neiges  Fortes précipitations  Vent > 20 kt
SIGMETs :   Divers  Orages  Givrage  Turbulence  Onde Orograph.  Cendres Volcan.







- Altitude de l'aérodrome : 121 ft
- Code IATA : HUY
- Voir les cartes d'approche


EGNJ - Humberside

DERNIER METAR :
  • 190250Z AUTO 12006KT 9999 BKN016/// OVC026/// 13/13 Q1009

METARs EXPIRÉS :
  • 190220Z AUTO 12007KT 9999 SCT023/// BKN028/// 13/13 Q1009
  • 190150Z AUTO 12006KT 9999 BKN047/// 14/13 Q1010
  • 190120Z AUTO 13007KT 9999 FEW015/// 14/13 Q1010
  • 190050Z AUTO 13005KT 9999 BKN015/// OVC019/// 14/13 Q1010
  • 190020Z AUTO 14005KT 9999 BKN020/// 14/13 Q1011

TAF TAF EGNJ
Valide du 19 à 03h jusqu'au 19 à 12h UTC


190201Z 1903/1912 11005KT 9999 SCT030
TEMPO 1903/1912 8000 RA BKN012
PROB40
TEMPO 1903/1909 BKN006
PROB30
TEMPO 1903/1909 BKN004
ATIS : +44 1652 682 020
Pas de NOTAMs connus pour ce terrain.
1 SIGMET publié pour la FIR London (EGTT) :
 
Orages noyés dans la masse
EGTT SIGMET 01 VALID 190200/190500 EGRR
EGTT LONDON FIR EMBD TS FCST WI N5030 E00037 - N5300 E00020 - N5342 E00353 - N5130 E00200 - N5107 E00200 - N5100 E00128 - N5040 E00128 - N5000 W00015 - N5000 W00157 - N5030 E00037 TOP FL330 MOV NE 25KT NC=



MET'MAP, la Météo Aéronautique d'un coup d'oeil ! - Copyright ORBIFLY Décembre 2007 - Disclaimer

ORBIFLY MET'MAP TEAM :

Programmation & Développement : Alexandra Zaïnal
Conception & Développement : Baudouin d'Aumeries
Co-Programmation & Développement : Marc-Olivier Méhu
Soutien technique & logistique : Manuel Goepfert

Contact : metmap@orbifly.com




SOURCES & CREDITS :

   NOAA